sensor_id;sensor_type;location;lat;lon;timestamp;temperature;humidity
53208;DHT22;39093;52.788;6.940;2024-02-21T00:00:43;9.20;99.90
53208;DHT22;39093;52.788;6.940;2024-02-21T00:03:10;9.20;99.90
53208;DHT22;39093;52.788;6.940;2024-02-21T00:05:37;9.20;99.90
53208;DHT22;39093;52.788;6.940;2024-02-21T00:08:04;9.30;99.90
53208;DHT22;39093;52.788;6.940;2024-02-21T00:10:31;9.30;99.90
53208;DHT22;39093;52.788;6.940;2024-02-21T00:12:59;9.30;99.90
53208;DHT22;39093;52.788;6.940;2024-02-21T00:15:26;9.20;99.90
53208;DHT22;39093;52.788;6.940;2024-02-21T00:17:53;9.20;99.90
53208;DHT22;39093;52.788;6.940;2024-02-21T00:20:20;9.20;99.90
53208;DHT22;39093;52.788;6.940;2024-02-21T00:22:49;9.20;99.90
53208;DHT22;39093;52.788;6.940;2024-02-21T00:25:16;9.20;99.90
53208;DHT22;39093;52.788;6.940;2024-02-21T00:27:43;9.20;99.90
53208;DHT22;39093;52.788;6.940;2024-02-21T00:30:10;9.20;99.90
53208;DHT22;39093;52.788;6.940;2024-02-21T00:32:37;9.20;99.90
53208;DHT22;39093;52.788;6.940;2024-02-21T00:35:04;9.20;99.90
53208;DHT22;39093;52.788;6.940;2024-02-21T00:37:31;9.20;99.90
53208;DHT22;39093;52.788;6.940;2024-02-21T00:39:59;9.30;99.90
53208;DHT22;39093;52.788;6.940;2024-02-21T00:42:25;9.20;99.90
53208;DHT22;39093;52.788;6.940;2024-02-21T00:44:52;9.20;99.90
53208;DHT22;39093;52.788;6.940;2024-02-21T00:47:19;9.30;99.90
53208;DHT22;39093;52.788;6.940;2024-02-21T00:49:46;9.30;99.90
53208;DHT22;39093;52.788;6.940;2024-02-21T00:52:13;9.30;99.90
53208;DHT22;39093;52.788;6.940;2024-02-21T00:54:40;9.30;99.90
53208;DHT22;39093;52.788;6.940;2024-02-21T00:57:19;9.30;99.90
53208;DHT22;39093;52.788;6.940;2024-02-21T00:59:46;9.30;99.90
53208;DHT22;39093;52.788;6.940;2024-02-21T01:02:13;9.30;99.90
53208;DHT22;39093;52.788;6.940;2024-02-21T01:04:40;9.30;99.90
53208;DHT22;39093;52.788;6.940;2024-02-21T01:07:07;9.30;99.90
53208;DHT22;39093;52.788;6.940;2024-02-21T01:09:34;9.30;99.90
53208;DHT22;39093;52.788;6.940;2024-02-21T01:12:01;9.30;99.90
53208;DHT22;39093;52.788;6.940;2024-02-21T01:14:28;9.30;99.90
53208;DHT22;39093;52.788;6.940;2024-02-21T01:16:55;9.30;99.90
53208;DHT22;39093;52.788;6.940;2024-02-21T01:19:22;9.30;99.90
53208;DHT22;39093;52.788;6.940;2024-02-21T01:21:49;9.30;99.90
53208;DHT22;39093;52.788;6.940;2024-02-21T01:24:16;9.30;99.90
53208;DHT22;39093;52.788;6.940;2024-02-21T01:26:43;9.20;99.90
53208;DHT22;39093;52.788;6.940;2024-02-21T01:29:10;9.20;99.90
53208;DHT22;39093;52.788;6.940;2024-02-21T01:31:37;9.20;99.90
53208;DHT22;39093;52.788;6.940;2024-02-21T01:34:04;9.20;99.90
53208;DHT22;39093;52.788;6.940;2024-02-21T01:36:31;9.20;99.90
53208;DHT22;39093;52.788;6.940;2024-02-21T01:38:59;9.30;99.90
53208;DHT22;39093;52.788;6.940;2024-02-21T01:41:26;9.20;99.90
53208;DHT22;39093;52.788;6.940;2024-02-21T01:43:53;9.10;99.90
53208;DHT22;39093;52.788;6.940;2024-02-21T01:46:20;9.20;99.90
53208;DHT22;39093;52.788;6.940;2024-02-21T01:48:48;9.10;99.90
53208;DHT22;39093;52.788;6.940;2024-02-21T01:51:15;9.10;99.90
53208;DHT22;39093;52.788;6.940;2024-02-21T01:53:46;9.10;99.90
53208;DHT22;39093;52.788;6.940;2024-02-21T01:56:13;9.10;99.90
53208;DHT22;39093;52.788;6.940;2024-02-21T01:58:45;9.10;99.90
53208;DHT22;39093;52.788;6.940;2024-02-21T02:01:15;9.20;99.90
53208;DHT22;39093;52.788;6.940;2024-02-21T02:03:48;9.30;99.90
53208;DHT22;39093;52.788;6.940;2024-02-21T02:06:15;9.20;99.90
53208;DHT22;39093;52.788;6.940;2024-02-21T02:08:46;9.20;99.90
53208;DHT22;39093;52.788;6.940;2024-02-21T02:11:16;9.20;99.90
53208;DHT22;39093;52.788;6.940;2024-02-21T02:13:44;9.20;99.90
53208;DHT22;39093;52.788;6.940;2024-02-21T02:16:10;9.20;99.90
53208;DHT22;39093;52.788;6.940;2024-02-21T02:18:37;9.20;99.90
53208;DHT22;39093;52.788;6.940;2024-02-21T02:21:13;9.20;99.90
53208;DHT22;39093;52.788;6.940;2024-02-21T02:23:43;9.20;99.90
53208;DHT22;39093;52.788;6.940;2024-02-21T02:26:10;9.10;99.90
53208;DHT22;39093;52.788;6.940;2024-02-21T02:28:37;9.10;99.90
53208;DHT22;39093;52.788;6.940;2024-02-21T02:31:04;9.10;99.90
53208;DHT22;39093;52.788;6.940;2024-02-21T02:33:32;9.00;99.90
53208;DHT22;39093;52.788;6.940;2024-02-21T02:35:59;9.00;99.90
53208;DHT22;39093;52.788;6.940;2024-02-21T02:38:26;9.00;99.90
53208;DHT22;39093;52.788;6.940;2024-02-21T02:40:52;9.00;99.90
53208;DHT22;39093;52.788;6.940;2024-02-21T02:43:19;9.00;99.90
53208;DHT22;39093;52.788;6.940;2024-02-21T02:45:46;8.90;99.90
53208;DHT22;39093;52.788;6.940;2024-02-21T02:48:13;8.90;99.90
53208;DHT22;39093;52.788;6.940;2024-02-21T02:50:41;8.90;99.90
53208;DHT22;39093;52.788;6.940;2024-02-21T02:53:07;8.80;99.90
53208;DHT22;39093;52.788;6.940;2024-02-21T02:55:34;8.80;99.90
53208;DHT22;39093;52.788;6.940;2024-02-21T02:58:02;8.80;99.90
53208;DHT22;39093;52.788;6.940;2024-02-21T03:00:29;8.80;99.90
53208;DHT22;39093;52.788;6.940;2024-02-21T03:02:56;8.80;99.90
53208;DHT22;39093;52.788;6.940;2024-02-21T03:05:23;8.80;99.90
53208;DHT22;39093;52.788;6.940;2024-02-21T03:07:50;8.80;99.90
53208;DHT22;39093;52.788;6.940;2024-02-21T03:10:17;8.80;99.90
53208;DHT22;39093;52.788;6.940;2024-02-21T03:12:45;8.70;99.90
53208;DHT22;39093;52.788;6.940;2024-02-21T03:15:13;8.80;99.90
53208;DHT22;39093;52.788;6.940;2024-02-21T03:17:41;8.70;99.90
53208;DHT22;39093;52.788;6.940;2024-02-21T03:20:09;8.70;99.90
53208;DHT22;39093;52.788;6.940;2024-02-21T03:22:39;8.70;99.90
53208;DHT22;39093;52.788;6.940;2024-02-21T03:25:07;8.80;99.90
53208;DHT22;39093;52.788;6.940;2024-02-21T03:27:34;8.70;99.90
53208;DHT22;39093;52.788;6.940;2024-02-21T03:30:01;8.70;99.90
53208;DHT22;39093;52.788;6.940;2024-02-21T03:32:28;8.70;99.90
53208;DHT22;39093;52.788;6.940;2024-02-21T03:34:56;8.70;99.90
53208;DHT22;39093;52.788;6.940;2024-02-21T03:37:26;8.70;99.90
53208;DHT22;39093;52.788;6.940;2024-02-21T03:39:53;8.70;99.90
53208;DHT22;39093;52.788;6.940;2024-02-21T03:42:20;8.70;99.90
53208;DHT22;39093;52.788;6.940;2024-02-21T03:44:47;8.80;99.90
53208;DHT22;39093;52.788;6.940;2024-02-21T03:47:14;8.70;99.90
53208;DHT22;39093;52.788;6.940;2024-02-21T03:49:41;8.70;99.90
53208;DHT22;39093;52.788;6.940;2024-02-21T03:52:09;8.70;99.90
53208;DHT22;39093;52.788;6.940;2024-02-21T03:54:37;8.80;99.90
53208;DHT22;39093;52.788;6.940;2024-02-21T03:57:05;8.70;99.90
53208;DHT22;39093;52.788;6.940;2024-02-21T03:59:33;8.70;99.90
53208;DHT22;39093;52.788;6.940;2024-02-21T04:02:00;8.80;99.90
53208;DHT22;39093;52.788;6.940;2024-02-21T04:04:27;8.80;99.90
53208;DHT22;39093;52.788;6.940;2024-02-21T04:06:54;8.80;99.90
53208;DHT22;39093;52.788;6.940;2024-02-21T04:09:21;8.80;99.90
53208;DHT22;39093;52.788;6.940;2024-02-21T04:11:48;8.80;99.90
53208;DHT22;39093;52.788;6.940;2024-02-21T04:14:15;8.70;99.90
53208;DHT22;39093;52.788;6.940;2024-02-21T04:16:42;8.70;99.90
53208;DHT22;39093;52.788;6.940;2024-02-21T04:19:09;8.70;99.90
53208;DHT22;39093;52.788;6.940;2024-02-21T04:21:36;8.70;99.90
53208;DHT22;39093;52.788;6.940;2024-02-21T04:24:03;8.70;99.90
53208;DHT22;39093;52.788;6.940;2024-02-21T04:26:33;8.70;99.90
53208;DHT22;39093;52.788;6.940;2024-02-21T04:29:01;8.80;99.90
53208;DHT22;39093;52.788;6.940;2024-02-21T04:31:28;8.80;99.90
53208;DHT22;39093;52.788;6.940;2024-02-21T04:33:56;8.80;99.90
53208;DHT22;39093;52.788;6.940;2024-02-21T04:36:24;8.80;99.90
53208;DHT22;39093;52.788;6.940;2024-02-21T04:38:51;8.70;99.90
53208;DHT22;39093;52.788;6.940;2024-02-21T04:41:18;8.70;99.90
53208;DHT22;39093;52.788;6.940;2024-02-21T04:43:46;8.80;99.90
53208;DHT22;39093;52.788;6.940;2024-02-21T04:46:14;8.70;99.90
53208;DHT22;39093;52.788;6.940;2024-02-21T04:48:42;8.70;99.90
53208;DHT22;39093;52.788;6.940;2024-02-21T04:51:13;8.70;99.90
53208;DHT22;39093;52.788;6.940;2024-02-21T04:53:43;8.80;99.90
53208;DHT22;39093;52.788;6.940;2024-02-21T04:56:10;8.80;99.90
53208;DHT22;39093;52.788;6.940;2024-02-21T04:58:38;8.70;99.90
53208;DHT22;39093;52.788;6.940;2024-02-21T05:01:06;8.80;99.90
53208;DHT22;39093;52.788;6.940;2024-02-21T05:03:34;8.70;99.90
53208;DHT22;39093;52.788;6.940;2024-02-21T05:06:03;8.70;99.90
53208;DHT22;39093;52.788;6.940;2024-02-21T05:08:30;8.70;99.90
53208;DHT22;39093;52.788;6.940;2024-02-21T05:10:57;8.70;99.90
53208;DHT22;39093;52.788;6.940;2024-02-21T05:13:24;8.70;99.90
53208;DHT22;39093;52.788;6.940;2024-02-21T05:15:51;8.70;99.90
53208;DHT22;39093;52.788;6.940;2024-02-21T05:18:19;8.80;99.90
53208;DHT22;39093;52.788;6.940;2024-02-21T05:20:50;8.80;99.90
53208;DHT22;39093;52.788;6.940;2024-02-21T05:23:17;8.70;99.90
53208;DHT22;39093;52.788;6.940;2024-02-21T05:25:44;8.80;99.90
53208;DHT22;39093;52.788;6.940;2024-02-21T05:28:11;8.80;99.90
53208;DHT22;39093;52.788;6.940;2024-02-21T05:30:38;8.80;99.90
53208;DHT22;39093;52.788;6.940;2024-02-21T05:33:06;8.80;99.90
53208;DHT22;39093;52.788;6.940;2024-02-21T05:35:34;8.80;99.90
53208;DHT22;39093;52.788;6.940;2024-02-21T05:38:01;8.80;99.90
53208;DHT22;39093;52.788;6.940;2024-02-21T05:40:28;8.80;99.90
53208;DHT22;39093;52.788;6.940;2024-02-21T05:42:55;8.80;99.90
53208;DHT22;39093;52.788;6.940;2024-02-21T05:45:22;8.80;99.90
53208;DHT22;39093;52.788;6.940;2024-02-21T05:47:49;8.80;99.90
53208;DHT22;39093;52.788;6.940;2024-02-21T05:50:17;8.80;99.90
53208;DHT22;39093;52.788;6.940;2024-02-21T05:52:44;8.80;99.90
53208;DHT22;39093;52.788;6.940;2024-02-21T05:55:11;8.80;99.90
53208;DHT22;39093;52.788;6.940;2024-02-21T05:57:38;8.80;99.90
53208;DHT22;39093;52.788;6.940;2024-02-21T06:00:06;8.90;99.90
53208;DHT22;39093;52.788;6.940;2024-02-21T06:02:33;8.90;99.90
53208;DHT22;39093;52.788;6.940;2024-02-21T06:05:00;8.80;99.90
53208;DHT22;39093;52.788;6.940;2024-02-21T06:07:27;8.90;99.90
53208;DHT22;39093;52.788;6.940;2024-02-21T06:09:54;9.00;99.90
53208;DHT22;39093;52.788;6.940;2024-02-21T06:12:21;9.00;99.90
53208;DHT22;39093;52.788;6.940;2024-02-21T06:14:48;8.90;99.90
53208;DHT22;39093;52.788;6.940;2024-02-21T06:17:15;8.90;99.90
53208;DHT22;39093;52.788;6.940;2024-02-21T06:19:43;8.90;99.90
53208;DHT22;39093;52.788;6.940;2024-02-21T06:22:11;9.00;99.90
53208;DHT22;39093;52.788;6.940;2024-02-21T06:24:38;8.90;99.90
53208;DHT22;39093;52.788;6.940;2024-02-21T06:27:05;8.90;99.90
53208;DHT22;39093;52.788;6.940;2024-02-21T06:29:36;8.90;99.90
53208;DHT22;39093;52.788;6.940;2024-02-21T06:32:04;8.90;99.90
53208;DHT22;39093;52.788;6.940;2024-02-21T06:34:31;8.90;99.90
53208;DHT22;39093;52.788;6.940;2024-02-21T06:37:00;8.80;99.90
53208;DHT22;39093;52.788;6.940;2024-02-21T06:39:27;9.00;99.90
53208;DHT22;39093;52.788;6.940;2024-02-21T06:41:56;8.90;99.90
53208;DHT22;39093;52.788;6.940;2024-02-21T06:44:28;8.90;99.90
53208;DHT22;39093;52.788;6.940;2024-02-21T06:46:55;8.90;99.90
53208;DHT22;39093;52.788;6.940;2024-02-21T06:49:22;8.90;99.90
53208;DHT22;39093;52.788;6.940;2024-02-21T06:51:49;8.90;99.90
53208;DHT22;39093;52.788;6.940;2024-02-21T06:54:16;8.90;99.90
53208;DHT22;39093;52.788;6.940;2024-02-21T06:56:43;8.80;99.90
53208;DHT22;39093;52.788;6.940;2024-02-21T06:59:10;8.90;99.90
53208;DHT22;39093;52.788;6.940;2024-02-21T07:01:38;8.90;99.90
53208;DHT22;39093;52.788;6.940;2024-02-21T07:04:05;8.90;99.90
53208;DHT22;39093;52.788;6.940;2024-02-21T07:06:32;8.90;99.90
53208;DHT22;39093;52.788;6.940;2024-02-21T07:09:01;8.90;99.90
53208;DHT22;39093;52.788;6.940;2024-02-21T07:11:28;8.90;99.90
53208;DHT22;39093;52.788;6.940;2024-02-21T07:13:56;8.90;99.90
53208;DHT22;39093;52.788;6.940;2024-02-21T07:16:23;8.90;99.90
53208;DHT22;39093;52.788;6.940;2024-02-21T07:18:50;8.90;99.90
53208;DHT22;39093;52.788;6.940;2024-02-21T07:21:17;8.90;99.90
53208;DHT22;39093;52.788;6.940;2024-02-21T07:23:43;8.90;99.90
53208;DHT22;39093;52.788;6.940;2024-02-21T07:26:10;8.90;99.90
53208;DHT22;39093;52.788;6.940;2024-02-21T07:28:37;8.90;99.90
53208;DHT22;39093;52.788;6.940;2024-02-21T07:31:04;8.90;99.90
53208;DHT22;39093;52.788;6.940;2024-02-21T07:33:31;8.90;99.90
53208;DHT22;39093;52.788;6.940;2024-02-21T07:35:59;9.00;99.90
53208;DHT22;39093;52.788;6.940;2024-02-21T07:38:26;8.80;99.90
53208;DHT22;39093;52.788;6.940;2024-02-21T07:40:53;8.80;99.90
53208;DHT22;39093;52.788;6.940;2024-02-21T07:43:20;8.70;99.90
53208;DHT22;39093;52.788;6.940;2024-02-21T07:45:49;8.70;99.90
53208;DHT22;39093;52.788;6.940;2024-02-21T07:48:16;8.70;99.90
53208;DHT22;39093;52.788;6.940;2024-02-21T07:50:44;8.90;99.90
53208;DHT22;39093;52.788;6.940;2024-02-21T07:53:11;8.80;99.90
53208;DHT22;39093;52.788;6.940;2024-02-21T07:55:38;8.80;99.90
53208;DHT22;39093;52.788;6.940;2024-02-21T07:58:05;8.70;99.90
53208;DHT22;39093;52.788;6.940;2024-02-21T08:00:32;8.80;99.90
53208;DHT22;39093;52.788;6.940;2024-02-21T08:02:59;8.70;99.90
53208;DHT22;39093;52.788;6.940;2024-02-21T08:05:26;8.80;99.90
53208;DHT22;39093;52.788;6.940;2024-02-21T08:07:52;8.80;99.90
53208;DHT22;39093;52.788;6.940;2024-02-21T08:10:24;8.80;99.90
53208;DHT22;39093;52.788;6.940;2024-02-21T08:12:51;8.80;99.90
53208;DHT22;39093;52.788;6.940;2024-02-21T08:15:18;8.80;99.90
53208;DHT22;39093;52.788;6.940;2024-02-21T08:17:45;8.70;99.90
53208;DHT22;39093;52.788;6.940;2024-02-21T08:20:12;8.70;99.90
53208;DHT22;39093;52.788;6.940;2024-02-21T08:22:39;8.80;99.90
53208;DHT22;39093;52.788;6.940;2024-02-21T08:25:06;8.80;99.90
53208;DHT22;39093;52.788;6.940;2024-02-21T08:27:33;8.80;99.90
53208;DHT22;39093;52.788;6.940;2024-02-21T08:30:01;8.80;99.90
53208;DHT22;39093;52.788;6.940;2024-02-21T08:32:29;8.80;99.90
53208;DHT22;39093;52.788;6.940;2024-02-21T08:34:56;8.70;99.90
53208;DHT22;39093;52.788;6.940;2024-02-21T08:37:23;8.70;99.90
53208;DHT22;39093;52.788;6.940;2024-02-21T08:39:50;8.70;99.90
53208;DHT22;39093;52.788;6.940;2024-02-21T08:42:16;8.80;99.90
53208;DHT22;39093;52.788;6.940;2024-02-21T08:44:44;8.70;99.90
53208;DHT22;39093;52.788;6.940;2024-02-21T08:47:11;8.70;99.90
53208;DHT22;39093;52.788;6.940;2024-02-21T08:49:38;8.80;99.90
53208;DHT22;39093;52.788;6.940;2024-02-21T08:52:05;8.80;99.90
53208;DHT22;39093;52.788;6.940;2024-02-21T08:54:32;8.80;99.90
53208;DHT22;39093;52.788;6.940;2024-02-21T08:57:01;8.90;99.90
53208;DHT22;39093;52.788;6.940;2024-02-21T08:59:28;8.90;99.90
53208;DHT22;39093;52.788;6.940;2024-02-21T09:01:54;8.90;99.90
53208;DHT22;39093;52.788;6.940;2024-02-21T09:04:21;8.90;99.90
53208;DHT22;39093;52.788;6.940;2024-02-21T09:06:49;8.90;99.90
53208;DHT22;39093;52.788;6.940;2024-02-21T09:09:16;9.00;99.90
53208;DHT22;39093;52.788;6.940;2024-02-21T09:11:43;9.00;99.90
53208;DHT22;39093;52.788;6.940;2024-02-21T09:14:10;9.00;99.90
53208;DHT22;39093;52.788;6.940;2024-02-21T09:16:37;9.00;99.90
53208;DHT22;39093;52.788;6.940;2024-02-21T09:19:04;9.00;99.90
53208;DHT22;39093;52.788;6.940;2024-02-21T09:21:31;9.10;99.90
53208;DHT22;39093;52.788;6.940;2024-02-21T09:23:58;9.10;99.90
53208;DHT22;39093;52.788;6.940;2024-02-21T09:26:26;9.10;99.90
53208;DHT22;39093;52.788;6.940;2024-02-21T09:28:53;9.10;99.90
53208;DHT22;39093;52.788;6.940;2024-02-21T09:31:21;9.10;99.90
53208;DHT22;39093;52.788;6.940;2024-02-21T09:33:48;9.10;99.90
53208;DHT22;39093;52.788;6.940;2024-02-21T09:36:15;9.10;99.90
53208;DHT22;39093;52.788;6.940;2024-02-21T09:38:42;9.20;99.90
53208;DHT22;39093;52.788;6.940;2024-02-21T09:43:47;9.20;99.90
53208;DHT22;39093;52.788;6.940;2024-02-21T09:46:18;9.20;99.90
53208;DHT22;39093;52.788;6.940;2024-02-21T09:51:16;9.20;99.90
53208;DHT22;39093;52.788;6.940;2024-02-21T09:53:44;9.30;99.90
53208;DHT22;39093;52.788;6.940;2024-02-21T09:56:28;9.20;99.90
53208;DHT22;39093;52.788;6.940;2024-02-21T09:58:55;9.20;99.90
53208;DHT22;39093;52.788;6.940;2024-02-21T10:01:23;9.30;99.90
53208;DHT22;39093;52.788;6.940;2024-02-21T10:04:01;9.30;99.90
53208;DHT22;39093;52.788;6.940;2024-02-21T10:06:30;9.30;99.90
53208;DHT22;39093;52.788;6.940;2024-02-21T10:08:57;9.30;99.90
53208;DHT22;39093;52.788;6.940;2024-02-21T10:11:25;9.30;99.90
53208;DHT22;39093;52.788;6.940;2024-02-21T10:14:13;9.30;99.90
53208;DHT22;39093;52.788;6.940;2024-02-21T10:16:41;9.30;99.90
53208;DHT22;39093;52.788;6.940;2024-02-21T10:19:19;9.30;99.90
53208;DHT22;39093;52.788;6.940;2024-02-21T10:22:08;9.20;99.90
53208;DHT22;39093;52.788;6.940;2024-02-21T10:24:38;9.30;99.90
53208;DHT22;39093;52.788;6.940;2024-02-21T10:27:09;9.40;99.90
53208;DHT22;39093;52.788;6.940;2024-02-21T10:29:39;9.40;99.90
53208;DHT22;39093;52.788;6.940;2024-02-21T10:32:07;9.40;99.90
53208;DHT22;39093;52.788;6.940;2024-02-21T10:34:36;9.40;99.90
53208;DHT22;39093;52.788;6.940;2024-02-21T10:37:05;9.40;99.90
53208;DHT22;39093;52.788;6.940;2024-02-21T10:39:33;9.50;99.90
53208;DHT22;39093;52.788;6.940;2024-02-21T10:42:02;9.50;99.90
53208;DHT22;39093;52.788;6.940;2024-02-21T10:44:36;9.50;99.90
53208;DHT22;39093;52.788;6.940;2024-02-21T10:47:11;9.50;99.90
53208;DHT22;39093;52.788;6.940;2024-02-21T10:49:41;9.60;99.90
53208;DHT22;39093;52.788;6.940;2024-02-21T10:52:27;9.60;99.90
53208;DHT22;39093;52.788;6.940;2024-02-21T10:55:03;9.60;99.90
53208;DHT22;39093;52.788;6.940;2024-02-21T10:57:34;9.60;99.90
53208;DHT22;39093;52.788;6.940;2024-02-21T11:00:04;9.70;99.90
53208;DHT22;39093;52.788;6.940;2024-02-21T11:02:35;9.70;99.90
53208;DHT22;39093;52.788;6.940;2024-02-21T11:05:03;9.70;99.90
53208;DHT22;39093;52.788;6.940;2024-02-21T11:07:32;9.80;99.90
53208;DHT22;39093;52.788;6.940;2024-02-21T11:10:02;9.90;99.90
53208;DHT22;39093;52.788;6.940;2024-02-21T11:12:32;10.00;99.90
53208;DHT22;39093;52.788;6.940;2024-02-21T11:15:04;10.00;99.90
53208;DHT22;39093;52.788;6.940;2024-02-21T11:17:32;10.10;99.90
53208;DHT22;39093;52.788;6.940;2024-02-21T11:20:15;10.10;99.90
53208;DHT22;39093;52.788;6.940;2024-02-21T11:22:42;10.00;99.90
53208;DHT22;39093;52.788;6.940;2024-02-21T11:25:10;10.10;99.90
53208;DHT22;39093;52.788;6.940;2024-02-21T11:27:45;10.00;99.90
53208;DHT22;39093;52.788;6.940;2024-02-21T11:30:13;10.00;99.90
53208;DHT22;39093;52.788;6.940;2024-02-21T11:32:41;9.90;99.90
53208;DHT22;39093;52.788;6.940;2024-02-21T11:35:08;9.90;99.90
53208;DHT22;39093;52.788;6.940;2024-02-21T11:37:46;10.00;99.90
53208;DHT22;39093;52.788;6.940;2024-02-21T11:40:13;10.00;99.90
53208;DHT22;39093;52.788;6.940;2024-02-21T11:42:40;10.00;99.90
53208;DHT22;39093;52.788;6.940;2024-02-21T11:45:08;10.00;99.90
53208;DHT22;39093;52.788;6.940;2024-02-21T11:47:37;9.90;99.90
53208;DHT22;39093;52.788;6.940;2024-02-21T11:50:10;9.90;99.90
53208;DHT22;39093;52.788;6.940;2024-02-21T11:52:38;9.80;99.90
53208;DHT22;39093;52.788;6.940;2024-02-21T11:55:06;9.90;99.90
53208;DHT22;39093;52.788;6.940;2024-02-21T11:57:37;9.90;99.90
53208;DHT22;39093;52.788;6.940;2024-02-21T12:00:12;9.90;99.90
53208;DHT22;39093;52.788;6.940;2024-02-21T12:02:41;9.90;99.90
53208;DHT22;39093;52.788;6.940;2024-02-21T12:05:08;9.90;99.90
53208;DHT22;39093;52.788;6.940;2024-02-21T12:07:39;10.00;99.90
53208;DHT22;39093;52.788;6.940;2024-02-21T12:10:11;10.00;99.90
53208;DHT22;39093;52.788;6.940;2024-02-21T12:12:38;10.10;99.90
53208;DHT22;39093;52.788;6.940;2024-02-21T12:15:07;10.10;99.90
53208;DHT22;39093;52.788;6.940;2024-02-21T12:17:39;10.10;99.90
53208;DHT22;39093;52.788;6.940;2024-02-21T12:20:06;10.10;99.90
53208;DHT22;39093;52.788;6.940;2024-02-21T12:22:44;10.10;99.90
53208;DHT22;39093;52.788;6.940;2024-02-21T12:25:21;10.10;99.90
53208;DHT22;39093;52.788;6.940;2024-02-21T12:27:53;10.10;99.90
53208;DHT22;39093;52.788;6.940;2024-02-21T12:30:20;10.10;99.90
53208;DHT22;39093;52.788;6.940;2024-02-21T12:32:50;10.10;99.90
53208;DHT22;39093;52.788;6.940;2024-02-21T12:35:18;10.10;99.90
53208;DHT22;39093;52.788;6.940;2024-02-21T12:37:46;10.00;99.90
53208;DHT22;39093;52.788;6.940;2024-02-21T12:40:13;10.00;99.90
53208;DHT22;39093;52.788;6.940;2024-02-21T12:42:42;10.00;99.90
53208;DHT22;39093;52.788;6.940;2024-02-21T12:45:09;10.00;99.90
53208;DHT22;39093;52.788;6.940;2024-02-21T12:47:36;10.10;99.90
53208;DHT22;39093;52.788;6.940;2024-02-21T12:50:04;10.20;99.90
53208;DHT22;39093;52.788;6.940;2024-02-21T12:52:34;10.10;99.90
53208;DHT22;39093;52.788;6.940;2024-02-21T12:55:01;10.10;99.90
53208;DHT22;39093;52.788;6.940;2024-02-21T12:57:28;10.10;99.90
53208;DHT22;39093;52.788;6.940;2024-02-21T12:59:55;10.00;99.90
53208;DHT22;39093;52.788;6.940;2024-02-21T13:02:21;10.00;99.90
53208;DHT22;39093;52.788;6.940;2024-02-21T13:04:49;10.00;99.90
53208;DHT22;39093;52.788;6.940;2024-02-21T13:07:16;10.00;99.90
53208;DHT22;39093;52.788;6.940;2024-02-21T13:09:43;9.90;99.90
53208;DHT22;39093;52.788;6.940;2024-02-21T13:12:10;10.00;99.90
53208;DHT22;39093;52.788;6.940;2024-02-21T13:14:37;9.90;99.90
53208;DHT22;39093;52.788;6.940;2024-02-21T13:17:05;9.90;99.90
53208;DHT22;39093;52.788;6.940;2024-02-21T13:19:33;9.90;99.90
53208;DHT22;39093;52.788;6.940;2024-02-21T13:22:00;9.90;99.90
53208;DHT22;39093;52.788;6.940;2024-02-21T13:24:30;9.90;99.90
53208;DHT22;39093;52.788;6.940;2024-02-21T13:26:57;9.90;99.90
53208;DHT22;39093;52.788;6.940;2024-02-21T13:29:24;10.00;99.90
53208;DHT22;39093;52.788;6.940;2024-02-21T13:31:51;10.00;99.90
53208;DHT22;39093;52.788;6.940;2024-02-21T13:34:18;10.10;99.90
53208;DHT22;39093;52.788;6.940;2024-02-21T13:36:46;10.10;99.90
53208;DHT22;39093;52.788;6.940;2024-02-21T13:39:13;10.10;99.90
53208;DHT22;39093;52.788;6.940;2024-02-21T13:41:42;10.10;99.90
53208;DHT22;39093;52.788;6.940;2024-02-21T13:44:10;10.20;99.90
53208;DHT22;39093;52.788;6.940;2024-02-21T13:46:39;10.30;99.90
53208;DHT22;39093;52.788;6.940;2024-02-21T13:49:06;10.30;99.90
53208;DHT22;39093;52.788;6.940;2024-02-21T13:51:34;10.30;99.90
53208;DHT22;39093;52.788;6.940;2024-02-21T13:54:04;10.30;99.90
53208;DHT22;39093;52.788;6.940;2024-02-21T13:56:31;10.40;99.90
53208;DHT22;39093;52.788;6.940;2024-02-21T13:58:59;10.30;99.90
53208;DHT22;39093;52.788;6.940;2024-02-21T14:01:27;10.20;99.90
53208;DHT22;39093;52.788;6.940;2024-02-21T14:03:59;10.20;99.90
53208;DHT22;39093;52.788;6.940;2024-02-21T14:06:26;10.20;99.90
53208;DHT22;39093;52.788;6.940;2024-02-21T14:08:53;10.20;99.90
53208;DHT22;39093;52.788;6.940;2024-02-21T14:11:20;10.20;99.90
53208;DHT22;39093;52.788;6.940;2024-02-21T14:13:48;10.20;99.90
53208;DHT22;39093;52.788;6.940;2024-02-21T14:16:15;10.10;99.90
53208;DHT22;39093;52.788;6.940;2024-02-21T14:18:42;10.10;99.90
53208;DHT22;39093;52.788;6.940;2024-02-21T14:21:10;10.10;99.90
53208;DHT22;39093;52.788;6.940;2024-02-21T14:23:38;10.20;99.90
53208;DHT22;39093;52.788;6.940;2024-02-21T14:26:05;10.10;99.90
53208;DHT22;39093;52.788;6.940;2024-02-21T14:28:33;10.00;99.90
53208;DHT22;39093;52.788;6.940;2024-02-21T14:31:03;10.00;99.90
53208;DHT22;39093;52.788;6.940;2024-02-21T14:33:32;9.90;99.90
53208;DHT22;39093;52.788;6.940;2024-02-21T14:35:59;9.90;99.90
53208;DHT22;39093;52.788;6.940;2024-02-21T14:38:27;9.90;99.90
53208;DHT22;39093;52.788;6.940;2024-02-21T14:40:54;9.90;99.90
53208;DHT22;39093;52.788;6.940;2024-02-21T14:43:21;9.80;99.90
53208;DHT22;39093;52.788;6.940;2024-02-21T14:45:49;9.80;99.90
53208;DHT22;39093;52.788;6.940;2024-02-21T14:48:16;9.90;99.90
53208;DHT22;39093;52.788;6.940;2024-02-21T14:50:43;9.90;99.90
53208;DHT22;39093;52.788;6.940;2024-02-21T14:53:10;9.90;99.90
53208;DHT22;39093;52.788;6.940;2024-02-21T14:55:37;9.80;99.90
53208;DHT22;39093;52.788;6.940;2024-02-21T14:58:10;9.80;99.90
53208;DHT22;39093;52.788;6.940;2024-02-21T15:00:37;9.80;99.90
53208;DHT22;39093;52.788;6.940;2024-02-21T15:03:05;9.80;99.90
53208;DHT22;39093;52.788;6.940;2024-02-21T15:05:32;9.90;99.90
53208;DHT22;39093;52.788;6.940;2024-02-21T15:08:01;9.80;99.90
53208;DHT22;39093;52.788;6.940;2024-02-21T15:10:29;9.90;99.90
53208;DHT22;39093;52.788;6.940;2024-02-21T15:12:56;9.90;99.90
53208;DHT22;39093;52.788;6.940;2024-02-21T15:15:23;9.80;99.90
53208;DHT22;39093;52.788;6.940;2024-02-21T15:17:49;9.90;99.90
53208;DHT22;39093;52.788;6.940;2024-02-21T15:20:17;9.80;99.90
53208;DHT22;39093;52.788;6.940;2024-02-21T15:22:45;9.90;99.90
53208;DHT22;39093;52.788;6.940;2024-02-21T15:25:12;9.90;99.90
53208;DHT22;39093;52.788;6.940;2024-02-21T15:27:43;9.90;99.90
53208;DHT22;39093;52.788;6.940;2024-02-21T15:30:11;9.90;99.90
53208;DHT22;39093;52.788;6.940;2024-02-21T15:32:39;9.90;99.90
53208;DHT22;39093;52.788;6.940;2024-02-21T15:35:06;9.90;99.90
53208;DHT22;39093;52.788;6.940;2024-02-21T15:37:34;9.80;99.90
53208;DHT22;39093;52.788;6.940;2024-02-21T15:40:02;9.80;99.90
53208;DHT22;39093;52.788;6.940;2024-02-21T15:42:32;9.80;99.90
53208;DHT22;39093;52.788;6.940;2024-02-21T15:44:59;9.80;99.90
53208;DHT22;39093;52.788;6.940;2024-02-21T15:47:32;9.80;99.90
53208;DHT22;39093;52.788;6.940;2024-02-21T15:49:59;9.80;99.90
53208;DHT22;39093;52.788;6.940;2024-02-21T15:52:28;9.80;99.90